Wetterdaten: aktuell Mittwoch, 10.07.2024 14:15
Datum Zeit Temp. A. Temp. A. min Feuchte A. Luftdruck Regen Wind Richtung Richtung Sonnenschein Solar Taupunkt Windchill Windben
10.07.2024 14:15 20,8 C 20,8 C 93 % 1015,9 hPa 0,2 l/m 0,0 km/h (0 Bft) SO 140 0 min 0 W/m 19,6 C 20,8 C 0,0 km/h (0 Bft)
10.07.2024 14:10 20,8 C 20,8 C 92 % 1016,0 hPa 0,4 l/m 0,0 km/h (0 Bft) SO 140 0 min 0 W/m 19,4 C 20,8 C 0,0 km/h (0 Bft)
10.07.2024 14:07 20,8 C 20,8 C 92 % 1016,0 hPa 0,6 l/m 0,0 km/h (0 Bft) SO 140 0 min 0 W/m 19,4 C 20,8 C 0,0 km/h (0 Bft)
10.07.2024 14:01 21,1 C 21,1 C 91 % 1016,1 hPa 0,2 l/m 0,0 km/h (0 Bft) SO 126 0 min 0 W/m 19,6 C 21,1 C 0,0 km/h (0 Bft)
10.07.2024 13:55 21,2 C 21,2 C 90 % 1016,1 hPa 0,4 l/m 0,0 km/h (0 Bft) SO 126 0 min 0 W/m 19,5 C 21,2 C 0,0 km/h (0 Bft)
10.07.2024 13:50 21,3 C 21,3 C 87 % 1016,3 hPa 0,0 l/m 0,0 km/h (0 Bft) SO 126 0 min 0 W/m 19,0 C 21,3 C 0,0 km/h (0 Bft)
10.07.2024 13:45 21,5 C 21,5 C 86 % 1016,4 hPa 0,0 l/m 0,0 km/h (0 Bft) O-SO 121 0 min 0 W/m 19,1 C 21,5 C 0,0 km/h (0 Bft)
10.07.2024 13:43 21,6 C 21,6 C 87 % 1016,3 hPa 0,2 l/m 0,5 km/h (0 Bft) SO 127 0 min 0 W/m 19,3 C 21,6 C 3,2 km/h (1 Bft)
10.07.2024 13:35 22,1 C 22,1 C 84 % 1016,2 hPa 0,2 l/m 0,0 km/h (0 Bft) O-SO 111 0 min 0 W/m 19,3 C 22,1 C 0,0 km/h (0 Bft)
10.07.2024 13:30 22,4 C 22,4 C 82 % 1016,1 hPa 0,0 l/m 0,4 km/h (0 Bft) O-SO 109 0 min 0 W/m 19,2 C 22,4 C 3,2 km/h (1 Bft)
10.07.2024 13:25 22,9 C 22,9 C 80 % 1016,1 hPa 0,0 l/m 0,0 km/h (0 Bft) O-SO 122 0 min 0 W/m 19,3 C 22,9 C 0,0 km/h (0 Bft)
10.07.2024 13:23 23,1 C 23,1 C 79 % 1016,1 hPa 0,2 l/m 1,0 km/h (0 Bft) SO 129 0 min 0 W/m 19,3 C 23,1 C 3,2 km/h (1 Bft)
10.07.2024 13:15 23,8 C 23,8 C 77 % 1016,0 hPa 0,0 l/m 0,2 km/h (0 Bft) O-NO 62 0 min 0 W/m 19,5 C 23,8 C 1,6 km/h (1 Bft)
10.07.2024 13:10 23,9 C 23,9 C 76 % 1015,9 hPa 0,0 l/m 0,0 km/h (0 Bft) O 81 0 min 0 W/m 19,4 C 23,9 C 1,6 km/h (1 Bft)
10.07.2024 13:05 24,1 C 24,1 C 72 % 1015,8 hPa 0,0 l/m 0,0 km/h (0 Bft) O-NO 65 0 min 0 W/m 18,7 C 24,1 C 0,0 km/h (0 Bft)
10.07.2024 13:03 24,1 C 24,1 C 72 % 1015,8 hPa 0,0 l/m 0,2 km/h (0 Bft) O-NO 74 0 min 0 W/m 18,7 C 24,1 C 3,2 km/h (1 Bft)
10.07.2024 12:55 24,3 C 24,3 C 70 % 1015,7 hPa 0,0 l/m 0,1 km/h (0 Bft) SO 129 0 min 0 W/m 18,5 C 24,3 C 1,6 km/h (1 Bft)
10.07.2024 12:50 24,3 C 24,3 C 71 % 1015,6 hPa 0,0 l/m 0,0 km/h (0 Bft) O-SO 105 0 min 0 W/m 18,7 C 24,3 C 1,6 km/h (1 Bft)
10.07.2024 12:45 24,5 C 24,5 C 69 % 1015,6 hPa 0,0 l/m 0,2 km/h (0 Bft) O-SO 109 0 min 0 W/m 18,4 C 24,5 C 3,2 km/h (1 Bft)
10.07.2024 12:42 24,6 C 24,5 C 69 % 1015,6 hPa 0,0 l/m 0,2 km/h (0 Bft) S-SO 147 0 min 0 W/m 18,5 C 24,6 C 3,2 km/h (1 Bft)
10.07.2024 12:35 24,7 C 24,7 C 73 % 1015,6 hPa 0,0 l/m 0,4 km/h (0 Bft) O-SO 102 0 min 0 W/m 19,5 C 24,7 C 3,2 km/h (1 Bft)
10.07.2024 12:30 24,7 C 24,6 C 72 % 1015,5 hPa 0,0 l/m 0,0 km/h (0 Bft) O-NO 78 0 min 0 W/m 19,3 C 24,7 C 0,0 km/h (0 Bft)
10.07.2024 12:25 24,6 C 24,6 C 73 % 1015,4 hPa 0,0 l/m 0,0 km/h (0 Bft) O-NO 63 0 min 0 W/m 19,4 C 24,6 C 0,0 km/h (0 Bft)
10.07.2024 12:20 24,6 C 24,6 C 74 % 1015,5 hPa 0,0 l/m 0,0 km/h (0 Bft) O 82 0 min 0 W/m 19,6 C 24,6 C 0,0 km/h (0 Bft)
10.07.2024 12:18 24,7 C 24,6 C 76 % 1015,5 hPa 0,0 l/m 0,1 km/h (0 Bft) NO 53 0 min 0 W/m 20,2 C 24,7 C 6,4 km/h (2 Bft)
10.07.2024 12:10 24,7 C 24,7 C 75 % 1015,3 hPa 0,0 l/m 0,0 km/h (0 Bft) SO 128 0 min 0 W/m 20,0 C 24,7 C 1,6 km/h (1 Bft)
10.07.2024 12:05 24,7 C 24,7 C 75 % 1015,4 hPa 0,0 l/m 0,0 km/h (0 Bft) NO 44 0 min 0 W/m 20,0 C 24,7 C 0,0 km/h (0 Bft)
10.07.2024 12:00 24,7 C 24,7 C 74 % 1015,3 hPa 0,0 l/m 0,0 km/h (0 Bft) O-NO 76 0 min 0 W/m 19,7 C 24,7 C 0,0 km/h (0 Bft)
10.07.2024 11:58 24,7 C 24,4 C 75 % 1015,3 hPa 0,0 l/m 0,3 km/h (0 Bft) O 80 0 min 0 W/m 20,0 C 24,7 C 3,2 km/h (1 Bft)
10.07.2024 11:50 24,4 C 24,3 C 77 % 1015,1 hPa 0,0 l/m 0,0 km/h (0 Bft) O-SO 123 0 min 0 W/m 20,1 C 24,4 C 1,6 km/h (1 Bft)
10.07.2024 11:45 24,3 C 24,3 C 78 % 1015,1 hPa 0,0 l/m 0,1 km/h (0 Bft) SO 143 0 min 0 W/m 20,2 C 24,3 C 1,6 km/h (1 Bft)
10.07.2024 11:40 24,4 C 24,4 C 80 % 1015,2 hPa 0,0 l/m 0,1 km/h (0 Bft) S-SO 159 0 min 0 W/m 20,7 C 24,4 C 1,6 km/h (1 Bft)
10.07.2024 11:38 24,4 C 24,2 C 81 % 1015,2 hPa 0,0 l/m 0,0 km/h (0 Bft) SO 133 0 min 0 W/m 20,9 C 24,4 C 1,6 km/h (1 Bft)
10.07.2024 11:30 24,2 C 24,1 C 79 % 1015,1 hPa 0,0 l/m 0,1 km/h (0 Bft) O-NO 72 0 min 0 W/m 20,3 C 24,2 C 4,8 km/h (1 Bft)
10.07.2024 11:25 24,1 C 24,1 C 80 % 1015,1 hPa 0,0 l/m 0,0 km/h (0 Bft) N 360 0 min 0 W/m 20,4 C 24,1 C 0,0 km/h (0 Bft)
10.07.2024 11:20 24,1 C 24,1 C 81 % 1015,0 hPa 0,0 l/m 0,0 km/h (0 Bft) N 355 0 min 0 W/m 20,6 C 24,1 C 0,0 km/h (0 Bft)
10.07.2024 11:18 24,1 C 24,1 C 82 % 1015,0 hPa 0,0 l/m 0,4 km/h (0 Bft) N-NO 19 0 min 0 W/m 20,8 C 24,1 C 3,2 km/h (1 Bft)
10.07.2024 11:10 24,3 C 24,3 C 80 % 1014,9 hPa 0,0 l/m 0,1 km/h (0 Bft) N-NO 23 0 min 0 W/m 20,6 C 24,3 C 1,6 km/h (1 Bft)
10.07.2024 11:05 24,3 C 24,3 C 80 % 1014,9 hPa 0,0 l/m 0,8 km/h (0 Bft) N-NW 348 0 min 0 W/m 20,6 C 24,3 C 8,0 km/h (2 Bft)
10.07.2024 11:00 24,3 C 23,9 C 81 % 1015,0 hPa 0,0 l/m 0,0 km/h (0 Bft) NO 55 0 min 0 W/m 20,8 C 24,3 C 0,0 km/h (0 Bft)
10.07.2024 10:55 23,9 C 23,7 C 81 % 1014,8 hPa 0,0 l/m 0,0 km/h (0 Bft) NO 49 0 min 0 W/m 20,4 C 23,9 C 0,0 km/h (0 Bft)
10.07.2024 10:53 23,7 C 23,5 C 84 % 1014,8 hPa 0,0 l/m 0,1 km/h (0 Bft) O-NO 71 0 min 0 W/m 20,8 C 23,7 C 3,2 km/h (1 Bft)
10.07.2024 10:45 23,5 C 23,4 C 83 % 1014,7 hPa 0,0 l/m 0,7 km/h (0 Bft) O 89 0 min 0 W/m 20,4 C 23,5 C 3,2 km/h (1 Bft)
10.07.2024 10:40 23,4 C 23,2 C 84 % 1014,8 hPa 0,0 l/m 0,0 km/h (0 Bft) NO 47 0 min 0 W/m 20,5 C 23,4 C 1,6 km/h (1 Bft)
10.07.2024 10:35 23,2 C 23,2 C 85 % 1014,7 hPa 0,0 l/m 0,0 km/h (0 Bft) O-NO 68 0 min 0 W/m 20,5 C 23,2 C 0,0 km/h (0 Bft)
10.07.2024 10:33 23,2 C 22,9 C 85 % 1014,7 hPa 0,0 l/m 0,0 km/h (0 Bft) NO 40 0 min 0 W/m 20,5 C 23,2 C 0,0 km/h (0 Bft)
10.07.2024 10:25 22,9 C 22,8 C 86 % 1014,5 hPa 0,0 l/m 0,8 km/h (0 Bft) N-NO 29 0 min 0 W/m 20,4 C 22,9 C 4,8 km/h (1 Bft)
10.07.2024 10:20 22,8 C 22,7 C 87 % 1014,4 hPa 0,0 l/m 0,9 km/h (0 Bft) NO 42 0 min 0 W/m 20,5 C 22,8 C 3,2 km/h (1 Bft)
10.07.2024 10:15 22,8 C 22,7 C 86 % 1014,3 hPa 0,0 l/m 0,0 km/h (0 Bft) NO 47 0 min 0 W/m 20,3 C 22,8 C 0,0 km/h (0 Bft)
10.07.2024 10:13 22,7 C 22,7 C 86 % 1014,4 hPa 0,0 l/m 0,2 km/h (0 Bft) N-NO 13 0 min 0 W/m 20,2 C 22,7 C 1,6 km/h (1 Bft)
10.07.2024 10:05 22,8 C 22,7 C 88 % 1014,4 hPa 0,0 l/m 0,2 km/h (0 Bft) N-NO 13 0 min 0 W/m 20,7 C 22,8 C 1,6 km/h (1 Bft)
10.07.2024 10:00 22,7 C 22,6 C 88 % 1014,3 hPa 0,0 l/m 0,3 km/h (0 Bft) NO 36 0 min 0 W/m 20,6 C 22,7 C 4,8 km/h (1 Bft)
10.07.2024 09:55 22,6 C 22,6 C 87 % 1014,3 hPa 0,0 l/m 0,0 km/h (0 Bft) N 360 0 min 0 W/m 20,3 C 22,6 C 0,0 km/h (0 Bft)
10.07.2024 09:53 22,6 C 22,2 C 89 % 1014,3 hPa 0,0 l/m 0,0 km/h (0 Bft) N 5 0 min 0 W/m 20,7 C 22,6 C 0,0 km/h (0 Bft)
10.07.2024 09:45 22,2 C 22,1 C 89 % 1014,3 hPa 0,0 l/m 0,0 km/h (0 Bft) N 355 0 min 0 W/m 20,3 C 22,2 C 0,0 km/h (0 Bft)
10.07.2024 09:40 22,2 C 22,0 C 89 % 1014,2 hPa 0,0 l/m 0,0 km/h (0 Bft) N 355 0 min 0 W/m 20,3 C 22,2 C 0,0 km/h (0 Bft)
10.07.2024 09:35 22,0 C 21,9 C 90 % 1014,2 hPa 0,0 l/m 0,0 km/h (0 Bft) N 9 0 min 0 W/m 20,3 C 22,0 C 0,0 km/h (0 Bft)
10.07.2024 09:30 21,9 C 21,8 C 89 % 1014,2 hPa 0,0 l/m 0,0 km/h (0 Bft) N 9 0 min 0 W/m 20,0 C 21,9 C 0,0 km/h (0 Bft)
10.07.2024 09:27 21,8 C 21,8 C 91 % 1014,3 hPa 0,0 l/m 0,0 km/h (0 Bft) N 9 0 min 0 W/m 20,3 C 21,8 C 0,0 km/h (0 Bft)
10.07.2024 09:20 21,8 C 21,7 C 91 % 1014,5 hPa 0,0 l/m 0,0 km/h (0 Bft) N-NO 28 0 min 0 W/m 20,3 C 21,8 C 1,6 km/h (1 Bft)
10.07.2024 09:15 21,7 C 21,7 C 90 % 1014,4 hPa 0,0 l/m 0,0 km/h (0 Bft) NO 51 0 min 0 W/m 20,0 C 21,7 C 0,0 km/h (0 Bft)
10.07.2024 09:10 21,7 C 21,6 C 90 % 1014,2 hPa 0,0 l/m 0,0 km/h (0 Bft) NO 47 0 min 0 W/m 20,0 C 21,7 C 0,0 km/h (0 Bft)
10.07.2024 09:09 21,6 C 21,5 C 90 % 1014,1 hPa 0,0 l/m 0,6 km/h (0 Bft) NO 47 0 min 0 W/m 19,9 C 21,6 C 3,2 km/h (1 Bft)
10.07.2024 09:00 21,5 C 21,5 C 89 % 1014,1 hPa 0,0 l/m 0,3 km/h (0 Bft) N-NO 17 0 min 0 W/m 19,6 C 21,5 C 4,8 km/h (1 Bft)
10.07.2024 08:55 21,6 C 21,6 C 89 % 1014,3 hPa 0,0 l/m 0,3 km/h (0 Bft) NO 46 0 min 0 W/m 19,7 C 21,6 C 3,2 km/h (1 Bft)
10.07.2024 08:50 21,6 C 21,6 C 90 % 1014,2 hPa 0,0 l/m 0,7 km/h (0 Bft) NO 42 0 min 0 W/m 19,9 C 21,6 C 3,2 km/h (1 Bft)
10.07.2024 08:48 21,6 C 21,1 C 91 % 1014,1 hPa 0,0 l/m 0,0 km/h (0 Bft) N 355 0 min 0 W/m 20,1 C 21,6 C 1,6 km/h (1 Bft)
10.07.2024 08:40 21,1 C 21,1 C 90 % 1014,0 hPa 0,0 l/m 0,1 km/h (0 Bft) S-SW 194 0 min 0 W/m 19,4 C 21,1 C 1,6 km/h (1 Bft)
10.07.2024 08:35 21,2 C 21,1 C 91 % 1013,8 hPa 0,0 l/m 0,5 km/h (0 Bft) S 184 0 min 0 W/m 19,7 C 21,2 C 3,2 km/h (1 Bft)
10.07.2024 08:30 21,1 C 21,0 C 92 % 1013,7 hPa 0,0 l/m 0,5 km/h (0 Bft) S 180 0 min 0 W/m 19,7 C 21,1 C 1,6 km/h (1 Bft)
10.07.2024 08:28 21,0 C 20,6 C 92 % 1013,8 hPa 0,0 l/m 0,0 km/h (0 Bft) S-SW 202 0 min 0 W/m 19,6 C 21,0 C 0,0 km/h (0 Bft)
10.07.2024 08:20 20,7 C 20,6 C 90 % 1013,7 hPa 0,0 l/m 0,0 km/h (0 Bft) W-SW 257 0 min 0 W/m 19,0 C 20,7 C 0,0 km/h (0 Bft)
10.07.2024 08:15 20,7 C 20,6 C 90 % 1013,6 hPa 0,0 l/m 0,0 km/h (0 Bft) W-SW 255 0 min 0 W/m 19,0 C 20,7 C 0,0 km/h (0 Bft)
10.07.2024 08:10 20,7 C 20,6 C 90 % 1013,8 hPa 0,0 l/m 0,0 km/h (0 Bft) W-NW 285 0 min 0 W/m 19,0 C 20,7 C 0,0 km/h (0 Bft)
10.07.2024 08:05 20,7 C 20,7 C 89 % 1013,7 hPa 0,0 l/m 0,0 km/h (0 Bft) W-SW 250 0 min 0 W/m 18,8 C 20,7 C 0,0 km/h (0 Bft)
10.07.2024 08:03 20,7 C 20,7 C 89 % 1013,7 hPa 0,0 l/m 0,6 km/h (0 Bft) SW 219 0 min 0 W/m 18,8 C 20,7 C 8,0 km/h (2 Bft)
10.07.2024 07:55 20,7 C 20,7 C 88 % 1013,8 hPa 0,0 l/m 0,0 km/h (0 Bft) SW 218 0 min 0 W/m 18,6 C 20,7 C 0,0 km/h (0 Bft)
10.07.2024 07:50 20,7 C 20,7 C 88 % 1013,8 hPa 0,0 l/m 0,0 km/h (0 Bft) SW 215 0 min 0 W/m 18,6 C 20,7 C 0,0 km/h (0 Bft)
10.07.2024 07:45 20,7 C 20,7 C 88 % 1014,0 hPa 0,0 l/m 0,0 km/h (0 Bft) S-SW 207 0 min 0 W/m 18,6 C 20,7 C 0,0 km/h (0 Bft)
10.07.2024 07:43 20,8 C 20,7 C 88 % 1014,0 hPa 0,0 l/m 0,0 km/h (0 Bft) SW 218 0 min 0 W/m 18,7 C 20,8 C 0,0 km/h (0 Bft)
10.07.2024 07:35 20,8 C 20,8 C 87 % 1014,0 hPa 0,0 l/m 0,0 km/h (0 Bft) S-SW 192 0 min 0 W/m 18,6 C 20,8 C 0,0 km/h (0 Bft)
10.07.2024 07:30 20,9 C 20,9 C 87 % 1014,1 hPa 0,0 l/m 0,0 km/h (0 Bft) S-SW 193 0 min 0 W/m 18,7 C 20,9 C 0,0 km/h (0 Bft)
10.07.2024 07:25 21,0 C 20,9 C 86 % 1014,1 hPa 0,0 l/m 0,0 km/h (0 Bft) SW 227 0 min 0 W/m 18,6 C 21,0 C 0,0 km/h (0 Bft)
10.07.2024 07:24 20,9 C 20,9 C 86 % 1014,1 hPa 0,0 l/m 0,0 km/h (0 Bft) W 273 0 min 0 W/m 18,5 C 20,9 C 0,0 km/h (0 Bft)
10.07.2024 07:15 21,1 C 21,1 C 87 % 1014,3 hPa 0,0 l/m 0,0 km/h (0 Bft) W 273 0 min 0 W/m 18,8 C 21,1 C 0,0 km/h (0 Bft)
10.07.2024 07:10 21,2 C 21,1 C 87 % 1014,4 hPa 0,0 l/m 0,0 km/h (0 Bft) W-SW 244 0 min 0 W/m 18,9 C 21,2 C 0,0 km/h (0 Bft)
10.07.2024 07:05 21,2 C 21,2 C 87 % 1014,7 hPa 0,2 l/m 0,0 km/h (0 Bft) N-NW 340 0 min 0 W/m 18,9 C 21,2 C 0,0 km/h (0 Bft)
10.07.2024 07:00 21,2 C 21,2 C 87 % 1014,8 hPa 0,0 l/m 0,0 km/h (0 Bft) N-NO 30 0 min 0 W/m 18,9 C 21,2 C 0,0 km/h (0 Bft)
10.07.2024 06:55 21,3 C 21,2 C 87 % 1015,0 hPa 0,2 l/m 0,0 km/h (0 Bft) N-NW 335 0 min 0 W/m 19,0 C 21,3 C 0,0 km/h (0 Bft)
10.07.2024 06:50 21,3 C 21,2 C 86 % 1015,3 hPa 0,4 l/m 0,0 km/h (0 Bft) N-NO 26 0 min 0 W/m 18,9 C 21,3 C 0,0 km/h (0 Bft)
10.07.2024 06:45 21,2 C 21,2 C 85 % 1015,3 hPa 0,2 l/m 0,0 km/h (0 Bft) NO 42 0 min 0 W/m 18,6 C 21,2 C 0,0 km/h (0 Bft)
10.07.2024 06:40 21,3 C 21,2 C 84 % 1015,2 hPa 0,0 l/m 0,0 km/h (0 Bft) NO 51 0 min 0 W/m 18,5 C 21,3 C 0,0 km/h (0 Bft)
10.07.2024 06:35 21,2 C 21,2 C 83 % 1014,9 hPa 0,0 l/m 0,0 km/h (0 Bft) SW 232 0 min 0 W/m 18,2 C 21,2 C 0,0 km/h (0 Bft)
10.07.2024 06:30 21,2 C 21,2 C 83 % 1014,7 hPa 0,0 l/m 0,0 km/h (0 Bft) SW 230 0 min 0 W/m 18,2 C 21,2 C 0,0 km/h (0 Bft)
10.07.2024 06:25 21,3 C 21,2 C 83 % 1014,5 hPa 0,0 l/m 0,0 km/h (0 Bft) SW 230 0 min 0 W/m 18,3 C 21,3 C 0,0 km/h (0 Bft)
10.07.2024 06:20 21,3 C 21,3 C 83 % 1014,3 hPa 0,0 l/m 0,0 km/h (0 Bft) SW 230 0 min 0 W/m 18,3 C 21,3 C 0,0 km/h (0 Bft)
10.07.2024 06:15 21,3 C 21,3 C 83 % 1014,2 hPa 0,0 l/m 0,0 km/h (0 Bft) SW 230 0 min 0 W/m 18,3 C 21,3 C 0,0 km/h (0 Bft)
10.07.2024 06:10 21,3 C 21,3 C 84 % 1014,1 hPa 0,0 l/m 0,0 km/h (0 Bft) SW 230 0 min 0 W/m 18,5 C 21,3 C 0,0 km/h (0 Bft)
10.07.2024 06:05 21,3 C 21,3 C 83 % 1014,0 hPa 0,0 l/m 0,0 km/h (0 Bft) SW 227 0 min 0 W/m 18,3 C 21,3 C 0,0 km/h (0 Bft)
10.07.2024 06:00 21,3 C 21,3 C 82 % 1014,0 hPa 0,0 l/m 0,0 km/h (0 Bft) SW 227 0 min 0 W/m 18,1 C 21,3 C 0,0 km/h (0 Bft)
10.07.2024 05:55 21,3 C 21,3 C 82 % 1014,2 hPa 0,0 l/m 0,0 km/h (0 Bft) SW 227 0 min 0 W/m 18,1 C 21,3 C 0,0 km/h (0 Bft)
10.07.2024 05:50 21,3 C 21,3 C 82 % 1014,2 hPa 0,0 l/m 0,0 km/h (0 Bft) SW 233 0 min 0 W/m 18,1 C 21,3 C 0,0 km/h (0 Bft)
10.07.2024 05:45 21,3 C 21,3 C 82 % 1014,1 hPa 0,0 l/m 0,0 km/h (0 Bft) SW 234 0 min 0 W/m 18,1 C 21,3 C 0,0 km/h (0 Bft)
10.07.2024 05:40 21,4 C 21,4 C 82 % 1013,9 hPa 0,0 l/m 0,0 km/h (0 Bft) SW 234 0 min 0 W/m 18,2 C 21,4 C 0,0 km/h (0 Bft)
10.07.2024 05:35 21,4 C 21,4 C 82 % 1013,6 hPa 0,0 l/m 0,0 km/h (0 Bft) SW 234 0 min 0 W/m 18,2 C 21,4 C 0,0 km/h (0 Bft)
10.07.2024 05:30 21,4 C 21,4 C 82 % 1013,5 hPa 0,0 l/m 0,0 km/h (0 Bft) SW 234 0 min 0 W/m 18,2 C 21,4 C 0,0 km/h (0 Bft)
10.07.2024 05:25 21,4 C 21,4 C 82 % 1013,3 hPa 0,0 l/m 0,0 km/h (0 Bft) SW 234 0 min 0 W/m 18,2 C 21,4 C 0,0 km/h (0 Bft)
10.07.2024 05:20 21,4 C 21,4 C 82 % 1013,1 hPa 0,0 l/m 0,0 km/h (0 Bft) SW 234 0 min 0 W/m 18,2 C 21,4 C 0,0 km/h (0 Bft)
10.07.2024 05:15 21,5 C 21,5 C 82 % 1013,1 hPa 0,0 l/m 0,0 km/h (0 Bft) SW 234 0 min 0 W/m 18,3 C 21,5 C 0,0 km/h (0 Bft)
10.07.2024 05:10 21,5 C 21,5 C 81 % 1013,2 hPa 0,0 l/m 0,0 km/h (0 Bft) SW 234 0 min 0 W/m 18,1 C 21,5 C 0,0 km/h (0 Bft)
10.07.2024 05:05 21,6 C 21,6 C 81 % 1013,1 hPa 0,0 l/m 0,0 km/h (0 Bft) SW 234 0 min 0 W/m 18,2 C 21,6 C 0,0 km/h (0 Bft)
10.07.2024 05:00 21,6 C 21,6 C 81 % 1013,0 hPa 0,0 l/m 0,0 km/h (0 Bft) SW 234 0 min 0 W/m 18,2 C 21,6 C 0,0 km/h (0 Bft)
10.07.2024 04:55 21,6 C 21,6 C 81 % 1013,0 hPa 0,0 l/m 0,0 km/h (0 Bft) SW 234 0 min 0 W/m 18,2 C 21,6 C 0,0 km/h (0 Bft)
10.07.2024 04:50 21,6 C 21,6 C 80 % 1013,0 hPa 0,0 l/m 0,0 km/h (0 Bft) SW 233 0 min 0 W/m 18,0 C 21,6 C 0,0 km/h (0 Bft)
10.07.2024 04:45 21,6 C 21,6 C 80 % 1012,9 hPa 0,0 l/m 0,0 km/h (0 Bft) SW 233 0 min 0 W/m 18,0 C 21,6 C 0,0 km/h (0 Bft)
10.07.2024 04:40 21,6 C 21,6 C 80 % 1012,8 hPa 0,0 l/m 0,0 km/h (0 Bft) SW 233 0 min 0 W/m 18,0 C 21,6 C 0,0 km/h (0 Bft)
10.07.2024 04:35 21,7 C 21,7 C 80 % 1012,7 hPa 0,0 l/m 0,0 km/h (0 Bft) SW 233 0 min 0 W/m 18,1 C 21,7 C 0,0 km/h (0 Bft)
10.07.2024 04:30 21,7 C 21,7 C 80 % 1012,6 hPa 0,0 l/m 0,0 km/h (0 Bft) SW 233 0 min 0 W/m 18,1 C 21,7 C 0,0 km/h (0 Bft)
10.07.2024 04:25 21,7 C 21,7 C 80 % 1012,6 hPa 0,0 l/m 0,0 km/h (0 Bft) SW 233 0 min 0 W/m 18,1 C 21,7 C 0,0 km/h (0 Bft)
10.07.2024 04:20 21,8 C 21,8 C 80 % 1012,6 hPa 0,0 l/m 0,0 km/h (0 Bft) SW 233 0 min 0 W/m 18,2 C 21,8 C 0,0 km/h (0 Bft)
10.07.2024 04:15 21,8 C 21,8 C 80 % 1012,7 hPa 0,0 l/m 0,0 km/h (0 Bft) SW 233 0 min 0 W/m 18,2 C 21,8 C 0,0 km/h (0 Bft)
10.07.2024 04:10 21,8 C 21,8 C 79 % 1012,6 hPa 0,0 l/m 0,0 km/h (0 Bft) SW 233 0 min 0 W/m 18,0 C 21,8 C 0,0 km/h (0 Bft)
10.07.2024 04:05 21,8 C 21,8 C 79 % 1012,6 hPa 0,0 l/m 0,0 km/h (0 Bft) SW 233 0 min 0 W/m 18,0 C 21,8 C 0,0 km/h (0 Bft)
10.07.2024 04:00 21,9 C 21,9 C 79 % 1012,7 hPa 0,0 l/m 0,0 km/h (0 Bft) SW 233 0 min 0 W/m 18,1 C 21,9 C 0,0 km/h (0 Bft)
10.07.2024 03:55 21,9 C 21,9 C 78 % 1012,6 hPa 0,0 l/m 0,0 km/h (0 Bft) SW 233 0 min 0 W/m 17,9 C 21,9 C 0,0 km/h (0 Bft)
10.07.2024 03:50 22,0 C 22,0 C 78 % 1012,6 hPa 0,0 l/m 0,0 km/h (0 Bft) SW 233 0 min 0 W/m 18,0 C 22,0 C 0,0 km/h (0 Bft)
10.07.2024 03:45 22,1 C 22,1 C 78 % 1012,6 hPa 0,0 l/m 0,0 km/h (0 Bft) SW 233 0 min 0 W/m 18,1 C 22,1 C 0,0 km/h (0 Bft)
10.07.2024 03:40 22,1 C 22,1 C 79 % 1012,5 hPa 0,0 l/m 0,0 km/h (0 Bft) SW 233 0 min 0 W/m 18,3 C 22,1 C 0,0 km/h (0 Bft)
10.07.2024 03:35 22,1 C 22,1 C 78 % 1012,4 hPa 0,0 l/m 0,0 km/h (0 Bft) SW 233 0 min 0 W/m 18,1 C 22,1 C 0,0 km/h (0 Bft)
10.07.2024 03:30 22,2 C 22,2 C 78 % 1012,4 hPa 0,0 l/m 0,0 km/h (0 Bft) SW 227 0 min 0 W/m 18,2 C 22,2 C 0,0 km/h (0 Bft)
10.07.2024 03:25 22,2 C 22,2 C 78 % 1012,5 hPa 0,0 l/m 0,0 km/h (0 Bft) SW 225 0 min 0 W/m 18,2 C 22,2 C 0,0 km/h (0 Bft)
10.07.2024 03:20 22,3 C 22,3 C 77 % 1012,6 hPa 0,0 l/m 0,0 km/h (0 Bft) SW 230 0 min 0 W/m 18,1 C 22,3 C 0,0 km/h (0 Bft)
10.07.2024 03:15 22,4 C 22,3 C 77 % 1012,6 hPa 0,0 l/m 0,0 km/h (0 Bft) SW 230 0 min 0 W/m 18,2 C 22,4 C 0,0 km/h (0 Bft)
10.07.2024 03:10 22,4 C 22,4 C 77 % 1012,5 hPa 0,0 l/m 0,0 km/h (0 Bft) SW 230 0 min 0 W/m 18,2 C 22,4 C 0,0 km/h (0 Bft)
10.07.2024 03:05 22,5 C 22,5 C 77 % 1012,5 hPa 0,0 l/m 0,0 km/h (0 Bft) SW 230 0 min 0 W/m 18,3 C 22,5 C 0,0 km/h (0 Bft)
10.07.2024 03:00 22,6 C 22,6 C 76 % 1012,4 hPa 0,0 l/m 0,0 km/h (0 Bft) SW 230 0 min 0 W/m 18,1 C 22,6 C 0,0 km/h (0 Bft)
10.07.2024 02:55 22,6 C 22,6 C 76 % 1012,3 hPa 0,0 l/m 0,0 km/h (0 Bft) SW 230 0 min 0 W/m 18,1 C 22,6 C 0,0 km/h (0 Bft)
10.07.2024 02:50 22,7 C 22,7 C 76 % 1012,2 hPa 0,0 l/m 0,0 km/h (0 Bft) SW 230 0 min 0 W/m 18,2 C 22,7 C 0,0 km/h (0 Bft)
10.07.2024 02:45 22,8 C 22,8 C 76 % 1012,2 hPa 0,0 l/m 0,0 km/h (0 Bft) SW 225 0 min 0 W/m 18,3 C 22,8 C 0,0 km/h (0 Bft)
10.07.2024 02:40 22,8 C 22,8 C 76 % 1012,2 hPa 0,0 l/m 0,0 km/h (0 Bft) SW 225 0 min 0 W/m 18,3 C 22,8 C 0,0 km/h (0 Bft)
10.07.2024 02:35 22,9 C 22,9 C 75 % 1012,2 hPa 0,0 l/m 0,0 km/h (0 Bft) SW 223 0 min 0 W/m 18,2 C 22,9 C 0,0 km/h (0 Bft)
10.07.2024 02:30 22,9 C 22,9 C 75 % 1012,1 hPa 0,0 l/m 0,0 km/h (0 Bft) SW 223 0 min 0 W/m 18,2 C 22,9 C 0,0 km/h (0 Bft)
10.07.2024 02:25 23,0 C 23,0 C 75 % 1012,1 hPa 0,0 l/m 0,0 km/h (0 Bft) SW 223 0 min 0 W/m 18,3 C 23,0 C 0,0 km/h (0 Bft)
10.07.2024 02:20 23,1 C 23,1 C 75 % 1012,0 hPa 0,0 l/m 0,0 km/h (0 Bft) SW 222 0 min 0 W/m 18,4 C 23,1 C 0,0 km/h (0 Bft)
10.07.2024 02:15 23,2 C 23,1 C 75 % 1012,0 hPa 0,0 l/m 0,0 km/h (0 Bft) SW 221 0 min 0 W/m 18,5 C 23,2 C 0,0 km/h (0 Bft)
10.07.2024 02:10 23,2 C 23,2 C 75 % 1012,0 hPa 0,0 l/m 0,0 km/h (0 Bft) SW 220 0 min 0 W/m 18,5 C 23,2 C 0,0 km/h (0 Bft)
10.07.2024 02:05 23,3 C 23,3 C 75 % 1012,0 hPa 0,0 l/m 0,0 km/h (0 Bft) SW 220 0 min 0 W/m 18,6 C 23,3 C 0,0 km/h (0 Bft)
10.07.2024 02:00 23,4 C 23,4 C 75 % 1011,8 hPa 0,0 l/m 0,0 km/h (0 Bft) N-NO 20 0 min 0 W/m 18,7 C 23,4 C 0,0 km/h (0 Bft)
10.07.2024 01:55 23,4 C 23,4 C 74 % 1011,7 hPa 0,0 l/m 0,0 km/h (0 Bft) N-NO 26 0 min 0 W/m 18,5 C 23,4 C 0,0 km/h (0 Bft)
10.07.2024 01:50 23,5 C 23,5 C 74 % 1011,7 hPa 0,0 l/m 0,0 km/h (0 Bft) N-NO 26 0 min 0 W/m 18,6 C 23,5 C 0,0 km/h (0 Bft)
10.07.2024 01:45 23,6 C 23,6 C 74 % 1011,6 hPa 0,0 l/m 0,0 km/h (0 Bft) N-NO 26 0 min 0 W/m 18,7 C 23,6 C 0,0 km/h (0 Bft)
10.07.2024 01:40 23,7 C 23,7 C 73 % 1011,5 hPa 0,0 l/m 0,0 km/h (0 Bft) N-NO 15 0 min 0 W/m 18,6 C 23,7 C 0,0 km/h (0 Bft)
10.07.2024 01:35 23,8 C 23,8 C 73 % 1011,4 hPa 0,0 l/m 0,0 km/h (0 Bft) NO 40 0 min 0 W/m 18,7 C 23,8 C 0,0 km/h (0 Bft)
10.07.2024 01:30 23,9 C 23,9 C 73 % 1011,3 hPa 0,0 l/m 0,0 km/h (0 Bft) S 180 0 min 0 W/m 18,8 C 23,9 C 0,0 km/h (0 Bft)
10.07.2024 01:25 24,0 C 24,0 C 72 % 1011,3 hPa 0,0 l/m 0,0 km/h (0 Bft) S 180 0 min 0 W/m 18,6 C 24,0 C 0,0 km/h (0 Bft)
10.07.2024 01:20 24,1 C 24,1 C 72 % 1011,3 hPa 0,0 l/m 0,0 km/h (0 Bft) S 180 0 min 0 W/m 18,7 C 24,1 C 0,0 km/h (0 Bft)
10.07.2024 01:15 24,2 C 24,2 C 71 % 1011,2 hPa 0,0 l/m 0,0 km/h (0 Bft) S 180 0 min 0 W/m 18,6 C 24,2 C 0,0 km/h (0 Bft)
10.07.2024 01:10 24,3 C 24,3 C 71 % 1011,3 hPa 0,0 l/m 0,0 km/h (0 Bft) S 180 0 min 0 W/m 18,7 C 24,3 C 0,0 km/h (0 Bft)
10.07.2024 01:05 24,4 C 24,4 C 70 % 1011,2 hPa 0,0 l/m 0,0 km/h (0 Bft) S 180 0 min 0 W/m 18,6 C 24,4 C 0,0 km/h (0 Bft)
10.07.2024 01:00 24,5 C 24,4 C 70 % 1011,2 hPa 0,0 l/m 0,0 km/h (0 Bft) S 180 0 min 0 W/m 18,7 C 24,5 C 0,0 km/h (0 Bft)
10.07.2024 00:55 24,6 C 24,6 C 69 % 1011,1 hPa 0,0 l/m 0,0 km/h (0 Bft) S 180 0 min 0 W/m 18,5 C 24,6 C 0,0 km/h (0 Bft)
10.07.2024 00:50 24,7 C 24,7 C 69 % 1011,1 hPa 0,0 l/m 0,0 km/h (0 Bft) S 180 0 min 0 W/m 18,6 C 24,7 C 0,0 km/h (0 Bft)
10.07.2024 00:45 24,8 C 24,8 C 68 % 1011,1 hPa 0,0 l/m 0,0 km/h (0 Bft) S 183 0 min 0 W/m 18,5 C 24,8 C 0,0 km/h (0 Bft)
10.07.2024 00:40 24,9 C 24,9 C 68 % 1011,2 hPa 0,0 l/m 0,0 km/h (0 Bft) S 191 0 min 0 W/m 18,6 C 24,9 C 1,6 km/h (1 Bft)
10.07.2024 00:35 25,1 C 25,1 C 67 % 1011,2 hPa 0,0 l/m 0,0 km/h (0 Bft) S-SW 211 0 min 0 W/m 18,5 C 25,1 C 0,0 km/h (0 Bft)
10.07.2024 00:30 25,3 C 25,3 C 67 % 1011,1 hPa 0,0 l/m 1,6 km/h (1 Bft) S-SW 204 0 min 0 W/m 18,7 C 25,3 C 4,8 km/h (1 Bft)
10.07.2024 00:25 25,4 C 25,4 C 66 % 1011,2 hPa 0,0 l/m 0,0 km/h (0 Bft) SW 227 0 min 0 W/m 18,6 C 25,4 C 3,2 km/h (1 Bft)
10.07.2024 00:20 25,6 C 25,6 C 66 % 1011,3 hPa 0,0 l/m 0,0 km/h (0 Bft) S-SW 202 0 min 0 W/m 18,8 C 25,6 C 0,0 km/h (0 Bft)
10.07.2024 00:15 25,6 C 25,6 C 66 % 1011,4 hPa 0,0 l/m 0,0 km/h (0 Bft) S-SW 195 0 min 0 W/m 18,8 C 25,6 C 0,0 km/h (0 Bft)
10.07.2024 00:10 25,7 C 25,7 C 66 % 1011,4 hPa 0,0 l/m 0,0 km/h (0 Bft) S-SW 195 0 min 0 W/m 18,9 C 25,7 C 0,0 km/h (0 Bft)
10.07.2024 00:05 25,8 C 25,8 C 65 % 1011,4 hPa 0,0 l/m 0,0 km/h (0 Bft) SO 136 0 min 0 W/m 18,7 C 25,8 C 0,0 km/h (0 Bft)
10.07.2024 00:00 25,8 C 25,8 C 64 % 1011,3 hPa 0,0 l/m 0,0 km/h (0 Bft) SO 136 0 min 0 W/m 18,5 C 25,8 C 0,0 km/h (0 Bft)
_ Min-Zeit 08:10 08:10 00:00 00:30 - 00:00 - - - - 03:55 07:45 00:00
Minimum _ 20,6 C 20,6 C 64 % 1011,1 hPa - 0,0 km/h (0 Bft) - - - - 17,9 C 20,7 C 0,0 km/h (0 Bft)
_ Max-Zeit 00:00 00:00 14:15 13:45 14:07 00:30 - - 00:00 00:00 11:38 00:00 08:03
Maximum _ 25,9 C 25,8 C 93 % 1016,4 hPa 0,6 l/m 1,6 km/h
S-SW (1 Bft)
- - 0 min 0 W/m 20,9 C 25,8 C 8,0 km/h
SW (2 Bft)
Durchschnitt _ 22,6 C 22,6 C 80 % 1013,7 hPa #3,4 l/m 0,1 km/h (0 Bft) S-SW - #0 min. 0 W/m 19,0 C 22,6 C 0,8 km/h (0 Bft)